createdAt,value
2023-02-02T01:27:10.427Z,0.73
2023-02-02T01:29:39.317Z,0.82
2023-02-02T01:32:07.594Z,0.81
2023-02-02T01:34:40.890Z,0.79
2023-02-02T01:37:09.734Z,0.77
2023-02-02T01:39:38.877Z,0.75
2023-02-02T01:42:14.954Z,0.70
2023-02-02T01:44:53.052Z,0.70
2023-02-02T01:47:22.577Z,0.69
2023-02-02T01:49:51.029Z,0.67
2023-02-02T01:52:19.961Z,0.66
2023-02-02T01:54:50.677Z,0.66
2023-02-02T01:57:24.065Z,0.65
2023-02-02T01:59:52.441Z,0.63
2023-02-02T02:02:20.859Z,0.63
2023-02-02T02:04:49.931Z,0.62
2023-02-02T02:07:18.403Z,0.61
2023-02-02T02:09:47.326Z,0.61
2023-02-02T02:12:16.111Z,0.61
2023-02-02T02:15:04.946Z,0.61
2023-02-02T02:17:43.563Z,0.60
2023-02-02T02:20:45.876Z,0.60
2023-02-02T02:23:48.216Z,0.60
2023-02-02T02:26:38.030Z,0.60
2023-02-02T02:29:19.691Z,0.60
2023-02-02T02:31:48.075Z,0.60
2023-02-02T02:34:17.268Z,0.61
2023-02-02T02:36:55.082Z,0.60
2023-02-02T02:39:30.010Z,0.60
2023-02-02T02:42:00.664Z,0.61
2023-02-02T02:44:30.153Z,0.59
2023-02-02T02:46:58.325Z,0.60
2023-02-02T02:49:27.424Z,0.60
2023-02-02T02:51:56.553Z,0.60
2023-02-02T02:54:40.660Z,0.61
2023-02-02T02:57:15.093Z,0.60
2023-02-02T03:00:05.101Z,0.60
2023-02-02T03:02:37.519Z,0.61
2023-02-02T03:05:14.705Z,0.63
2023-02-02T03:07:45.273Z,0.63
2023-02-02T03:10:13.887Z,0.63
2023-02-02T03:12:46.749Z,0.65
2023-02-02T03:15:15.641Z,0.66
2023-02-02T03:17:43.841Z,0.66
2023-02-02T03:20:12.415Z,0.68
2023-02-02T03:22:41.102Z,0.69
2023-02-02T03:25:11.434Z,0.69
2023-02-02T03:27:40.306Z,0.69
2023-02-02T03:30:10.274Z,0.69
2023-02-02T03:32:39.948Z,0.68
2023-02-02T03:35:09.234Z,0.65
2023-02-02T03:37:37.529Z,0.62
2023-02-02T03:40:06.845Z,0.59
2023-02-02T03:42:35.146Z,0.59
2023-02-02T03:45:04.702Z,0.58
2023-02-02T03:47:33.086Z,0.57
2023-02-02T03:50:01.561Z,0.57
2023-02-02T03:52:29.840Z,0.58
2023-02-02T03:54:58.017Z,0.58
2023-02-02T03:57:26.192Z,0.59
2023-02-02T03:59:54.778Z,0.60
2023-02-02T04:02:23.265Z,0.59
2023-02-02T04:04:51.541Z,0.58
2023-02-02T04:07:20.635Z,0.57
2023-02-02T04:09:49.651Z,0.57
2023-02-02T04:12:17.857Z,0.57
2023-02-02T04:14:46.808Z,0.56
2023-02-02T04:17:15.081Z,0.56
2023-02-02T04:19:44.087Z,0.56
2023-02-02T04:22:12.326Z,0.55
2023-02-02T04:24:40.740Z,0.53
2023-02-02T04:27:08.918Z,0.54
2023-02-02T04:29:37.397Z,0.53
2023-02-02T04:32:05.779Z,0.54
2023-02-02T04:34:35.881Z,0.53
2023-02-02T04:37:04.379Z,0.52
2023-02-02T04:39:34.231Z,0.52
2023-02-02T04:42:02.988Z,0.51
2023-02-02T04:44:31.229Z,0.50
2023-02-02T04:47:01.803Z,0.48
2023-02-02T04:49:30.625Z,0.47
2023-02-02T04:51:58.863Z,0.46
2023-02-02T04:54:30.116Z,0.44
2023-02-02T04:56:58.492Z,0.43
2023-02-02T04:59:28.718Z,0.43
2023-02-02T05:02:00.835Z,0.43
2023-02-02T05:04:29.408Z,0.42
2023-02-02T05:06:57.847Z,0.43
2023-02-02T05:09:26.125Z,0.43
2023-02-02T05:11:56.064Z,0.44
2023-02-02T05:14:24.612Z,0.44
2023-02-02T05:16:53.942Z,0.43
2023-02-02T05:19:22.232Z,0.42
2023-02-02T05:21:51.422Z,0.42
2023-02-02T05:24:19.733Z,0.39
2023-02-02T05:26:48.093Z,0.38
2023-02-02T05:29:16.937Z,0.37
2023-02-02T05:31:45.486Z,0.35
2023-02-02T05:34:13.772Z,0.33
2023-02-02T05:36:42.295Z,0.30
2023-02-02T05:39:11.001Z,0.29
2023-02-02T05:41:39.276Z,0.30
2023-02-02T05:44:07.530Z,0.29
2023-02-02T05:46:35.931Z,0.29
2023-02-02T05:49:07.613Z,0.29
2023-02-02T05:51:40.775Z,0.28
2023-02-02T05:54:09.273Z,0.28
2023-02-02T05:56:37.539Z,0.29
2023-02-02T05:59:07.664Z,0.29
2023-02-02T06:01:37.167Z,0.29
2023-02-02T06:04:05.898Z,0.29
2023-02-02T06:06:38.230Z,0.29
2023-02-02T06:09:07.187Z,0.31
2023-02-02T06:11:39.696Z,0.32
2023-02-02T06:14:08.187Z,0.32
2023-02-02T06:16:37.490Z,0.33
2023-02-02T06:19:05.868Z,0.34
2023-02-02T06:21:34.245Z,0.36
2023-02-02T06:24:06.144Z,0.38
2023-02-02T06:26:35.034Z,0.38
2023-02-02T06:29:04.165Z,0.39
2023-02-02T06:31:34.354Z,0.41
2023-02-02T06:34:02.913Z,0.43
2023-02-02T06:36:32.006Z,0.45
2023-02-02T06:39:00.409Z,0.47
2023-02-02T06:41:28.873Z,0.49
2023-02-02T06:43:57.252Z,0.55
2023-02-02T06:46:25.557Z,0.62
2023-02-02T06:48:53.693Z,0.66
2023-02-02T06:51:21.923Z,0.70
2023-02-02T06:53:50.361Z,0.70
2023-02-02T06:56:18.539Z,0.74
2023-02-02T06:58:46.812Z,0.78
2023-02-02T07:01:15.645Z,0.82
2023-02-02T07:03:44.040Z,0.86
2023-02-02T07:06:25.866Z,0.86
2023-02-02T10:31:41.993Z,3.32
2023-02-02T10:34:33.442Z,5.23
2023-02-02T10:37:40.123Z,6.24
2023-02-02T10:40:27.441Z,6.89
2023-02-02T10:43:23.950Z,7.42
2023-02-02T10:45:52.512Z,7.82
2023-02-02T10:48:23.817Z,7.54
2023-02-02T10:50:54.673Z,6.84
2023-02-02T10:53:22.867Z,5.97
2023-02-02T10:55:56.099Z,5.34
2023-02-02T10:58:48.679Z,5.01
2023-02-02T11:01:18.440Z,5.06
2023-02-02T11:03:46.975Z,5.26
2023-02-02T11:06:33.993Z,5.53
2023-02-02T11:09:05.132Z,5.69
2023-02-02T11:11:34.948Z,5.50
2023-02-02T11:14:12.653Z,5.34
2023-02-02T11:16:44.724Z,5.27
2023-02-02T11:19:18.090Z,5.21
2023-02-02T11:21:51.481Z,4.95
2023-02-02T11:24:41.098Z,4.54
2023-02-02T11:27:17.273Z,4.01
2023-02-02T11:29:47.434Z,3.77
2023-02-02T11:32:29.727Z,3.72
2023-02-02T11:35:04.832Z,3.65
2023-02-02T11:37:35.076Z,3.59
2023-02-02T11:40:37.351Z,3.50
2023-02-02T11:43:28.493Z,3.40
2023-02-02T11:46:05.997Z,3.34
2023-02-02T11:48:37.080Z,3.31
2023-02-02T11:51:06.662Z,3.27
2023-02-02T11:53:50.444Z,3.25
2023-02-02T11:56:23.833Z,3.23
2023-02-02T11:58:53.223Z,3.19
2023-02-02T12:01:29.404Z,3.19
2023-02-02T12:04:02.030Z,3.18
2023-02-02T12:06:33.218Z,3.20
2023-02-02T12:09:02.606Z,3.29
2023-02-02T12:11:42.876Z,3.38
2023-02-02T12:14:32.083Z,3.47
2023-02-02T12:17:14.454Z,3.46
2023-02-02T12:20:01.887Z,3.41
2023-02-02T12:22:52.689Z,3.39
2023-02-02T12:25:47.288Z,3.37
2023-02-02T12:28:27.851Z,3.30
2023-02-02T12:31:34.152Z,3.22
2023-02-02T12:34:27.823Z,3.15
2023-02-02T12:37:24.591Z,3.09
2023-02-02T12:39:52.923Z,3.04
2023-02-02T12:42:50.035Z,3.04
2023-02-02T12:45:38.143Z,2.99
2023-02-02T12:48:31.172Z,2.96
2023-02-02T12:51:06.824Z,2.96
2023-02-02T12:54:32.943Z,3.01
2023-02-02T12:56:44.768Z,3.06
2023-02-02T12:59:19.217Z,3.09
2023-02-02T13:01:54.131Z,3.12
2023-02-02T13:05:05.197Z,3.14
2023-02-02T13:07:42.069Z,3.15
2023-02-02T13:10:31.849Z,3.15
2023-02-02T13:13:08.670Z,3.12
2023-02-02T13:15:38.780Z,3.06
2023-02-02T13:18:11.845Z,3.00
2023-02-02T13:21:03.671Z,2.94
2023-02-02T13:23:41.092Z,2.89
2023-02-02T13:26:18.391Z,2.83
2023-02-02T13:29:20.424Z,2.76
2023-02-02T13:31:52.347Z,2.66
2023-02-02T13:34:23.678Z,2.59
2023-02-02T13:36:57.574Z,2.53
2023-02-02T13:39:33.412Z,2.46
2023-02-02T13:42:03.047Z,2.42
2023-02-02T13:44:38.939Z,2.40
2023-02-02T13:47:12.847Z,2.34
2023-02-02T13:49:51.306Z,2.30
2023-02-02T13:52:41.279Z,2.28
2023-02-02T13:55:21.997Z,2.24
2023-02-02T13:58:19.573Z,2.22
2023-02-02T14:00:53.013Z,2.19
2023-02-02T14:03:33.904Z,2.17
2023-02-02T14:06:19.149Z,2.14
2023-02-02T14:08:55.959Z,2.14
2023-02-02T14:11:32.721Z,2.13
2023-02-02T14:14:32.243Z,2.12
2023-02-02T14:17:08.200Z,2.12
2023-02-02T14:19:36.367Z,2.10
2023-02-02T14:22:10.478Z,2.09
2023-02-02T14:24:42.241Z,2.06
2023-02-02T14:27:14.117Z,2.04
2023-02-02T14:29:46.789Z,2.01
2023-02-02T14:32:24.618Z,2.00
2023-02-02T14:35:10.170Z,1.99
2023-02-02T14:37:43.343Z,1.98
2023-02-02T14:40:50.368Z,1.96
2023-02-02T14:43:46.424Z,1.94
2023-02-02T14:46:14.884Z,1.92
2023-02-02T14:48:43.960Z,1.92
2023-02-02T14:51:14.679Z,1.91
2023-02-02T14:53:48.913Z,1.88
2023-02-02T14:56:17.425Z,1.83
2023-02-02T14:58:51.880Z,1.78
2023-02-02T15:01:27.507Z,1.72
2023-02-02T15:03:55.878Z,1.62
2023-02-02T15:06:28.354Z,1.54
2023-02-02T15:09:20.935Z,1.46
2023-02-02T15:12:00.843Z,1.39
2023-02-02T15:14:35.954Z,1.31
2023-02-02T15:17:26.981Z,1.27
2023-02-02T15:20:14.505Z,1.22
2023-02-02T15:22:44.038Z,1.17
2023-02-02T15:25:31.329Z,1.12
2023-02-02T15:28:11.538Z,1.04
2023-02-02T15:30:42.778Z,0.96
2023-02-02T15:33:47.881Z,0.89
2023-02-02T15:36:25.924Z,0.82
2023-02-02T15:38:59.167Z,0.75
2023-02-02T15:41:34.222Z,0.67
2023-02-02T15:44:21.906Z,0.62
2023-02-02T15:46:50.108Z,0.58
2023-02-02T15:49:34.912Z,0.54
2023-02-02T15:52:27.683Z,0.47
2023-02-02T15:54:57.388Z,0.43
2023-02-02T15:57:35.499Z,0.40
2023-02-02T16:00:23.620Z,0.39
2023-02-02T16:03:00.700Z,0.36
2023-02-02T18:16:56.259Z,0.56
2023-02-02T18:19:24.955Z,0.70
2023-02-02T18:21:53.503Z,0.67
2023-02-02T18:24:21.879Z,0.66
2023-02-02T18:26:50.250Z,0.65
2023-02-02T18:29:21.771Z,0.64
2023-02-02T18:31:50.154Z,0.61
2023-02-02T18:34:18.472Z,0.60
2023-02-02T18:36:49.615Z,0.58
2023-02-02T18:39:17.898Z,0.56
2023-02-02T18:41:46.275Z,0.55
2023-02-02T18:44:14.666Z,0.53
2023-02-02T18:46:47.171Z,0.51
2023-02-02T18:49:15.504Z,0.49
2023-02-02T18:51:44.303Z,0.48
2023-02-02T18:54:13.028Z,0.48
2023-02-02T18:56:41.458Z,0.48
2023-02-02T18:59:09.832Z,0.47
2023-02-02T19:01:38.490Z,0.47
2023-02-02T19:04:07.032Z,0.47
2023-02-02T19:06:53.939Z,0.46
2023-02-02T19:09:22.444Z,0.43
2023-02-02T19:11:51.331Z,0.43
2023-02-02T19:14:26.603Z,0.43
2023-02-02T19:16:56.442Z,0.43
2023-02-02T19:19:33.396Z,0.44
2023-02-02T19:22:07.839Z,0.45
2023-02-02T19:24:39.382Z,0.48
2023-02-02T19:27:22.118Z,0.49
2023-02-02T19:29:52.157Z,0.50
2023-02-02T19:32:23.325Z,0.51
2023-02-02T19:34:57.368Z,0.50
2023-02-02T19:37:27.027Z,0.51
2023-02-02T19:39:56.640Z,0.50
2023-02-02T19:42:24.953Z,0.47
2023-02-02T19:44:56.745Z,0.47
2023-02-02T19:47:30.654Z,0.46
2023-02-02T19:49:59.924Z,0.47
2023-02-02T19:52:28.285Z,0.46
2023-02-02T19:54:56.843Z,0.47
2023-02-02T19:57:42.036Z,0.46
2023-02-02T20:00:23.310Z,0.46
2023-02-02T20:03:02.754Z,0.45
2023-02-02T20:05:41.857Z,0.43
2023-02-02T20:08:24.229Z,0.44
2023-02-02T20:10:53.735Z,0.44
2023-02-02T20:13:24.068Z,0.45
2023-02-02T20:16:03.743Z,0.44
2023-02-02T20:18:42.985Z,0.46
2023-02-02T20:21:24.501Z,0.47
2023-02-02T20:23:53.808Z,0.50
2023-02-02T20:26:26.448Z,0.51
2023-02-02T20:28:56.837Z,0.54
2023-02-02T20:31:39.457Z,0.56
2023-02-02T20:34:27.785Z,0.57
2023-02-02T20:37:02.814Z,0.56
2023-02-02T20:39:42.829Z,0.55
2023-02-02T20:42:10.963Z,0.57
2023-02-02T20:44:39.625Z,0.56
2023-02-02T20:47:08.925Z,0.55
2023-02-02T20:49:37.821Z,0.55
2023-02-02T20:52:08.220Z,0.55
2023-02-02T20:54:36.738Z,0.56
2023-02-02T20:57:05.326Z,0.56
2023-02-02T20:59:33.571Z,0.56
2023-02-02T21:02:02.056Z,0.57
2023-02-02T21:04:30.661Z,0.57
2023-02-02T21:07:02.533Z,0.57
2023-02-02T21:09:31.536Z,0.55
2023-02-02T21:12:00.123Z,0.54
2023-02-02T21:14:28.615Z,0.54
2023-02-02T21:17:09.049Z,0.54
2023-02-02T21:19:42.660Z,0.54
2023-02-02T21:22:11.466Z,0.55
2023-02-02T21:24:40.651Z,0.54
2023-02-02T21:27:09.484Z,0.53
2023-02-02T21:29:38.977Z,0.52
2023-02-02T21:32:07.846Z,0.52
2023-02-02T21:34:38.010Z,0.50
2023-02-02T21:37:12.275Z,0.47
2023-02-02T21:39:48.700Z,0.46
2023-02-02T21:42:19.081Z,0.48
2023-02-02T21:44:57.070Z,0.49
2023-02-02T21:47:25.556Z,0.50
2023-02-02T21:49:55.837Z,0.47
2023-02-02T21:52:24.098Z,0.48
2023-02-02T21:54:53.944Z,0.48
2023-02-02T21:57:36.600Z,0.49
2023-02-02T22:00:25.134Z,0.49
2023-02-02T22:02:54.288Z,0.50
2023-02-02T22:05:35.737Z,0.51
2023-02-02T22:08:18.199Z,0.49
2023-02-02T22:10:46.751Z,0.48
2023-02-02T22:13:23.539Z,0.49
2023-02-02T22:15:56.136Z,0.50
2023-02-02T22:18:25.527Z,0.51
2023-02-02T22:20:54.696Z,0.51
2023-02-02T22:23:25.196Z,0.52
2023-02-02T22:25:55.254Z,0.51
2023-02-02T22:28:26.380Z,0.47
2023-02-02T22:30:56.190Z,0.47
2023-02-02T22:33:26.464Z,0.47
2023-02-02T22:35:54.901Z,0.47
2023-02-02T22:38:24.574Z,0.48
2023-02-02T22:40:55.922Z,0.48
2023-02-02T22:43:27.519Z,0.48
2023-02-02T22:45:55.890Z,0.50
2023-02-02T22:48:24.103Z,0.51
2023-02-02T22:50:53.482Z,0.52
2023-02-02T22:53:22.513Z,0.51
2023-02-02T22:55:56.548Z,0.51
2023-02-02T22:58:26.008Z,0.52
2023-02-02T23:00:54.680Z,0.54
2023-02-02T23:03:22.862Z,0.55
2023-02-02T23:05:51.239Z,0.56
2023-02-02T23:08:19.387Z,0.56
2023-02-02T23:11:07.475Z,0.57
2023-02-02T23:13:35.834Z,0.58
2023-02-02T23:16:04.938Z,0.58
2023-02-02T23:18:33.105Z,0.57
2023-02-02T23:21:01.385Z,0.55
2023-02-02T23:23:29.726Z,0.55
2023-02-02T23:25:57.848Z,0.54
2023-02-02T23:28:26.113Z,0.53
2023-02-02T23:30:54.849Z,0.53
2023-02-02T23:33:23.151Z,0.55
2023-02-02T23:35:51.348Z,0.54
2023-02-02T23:38:19.498Z,0.53
2023-02-02T23:40:47.836Z,0.53
2023-02-02T23:43:15.970Z,0.54
2023-02-02T23:45:44.500Z,0.54
2023-02-02T23:48:13.304Z,0.53
2023-02-02T23:50:41.881Z,0.53
2023-02-02T23:53:10.740Z,0.54
2023-02-02T23:55:43.051Z,0.53
2023-02-02T23:58:12.003Z,0.53
